首页
METAR-TAF:

METAR-TAF

机场 :

法伦, 内华达州, 美国

纬度: 39-25-56N, 经度: 118-41-08W, 海拔: 1199米

当前天气观测

该预报发布于50分钟前的22:56 UTC
风速6节,风向西南
温度 35°C
湿度 14%
气压 1019 hPa
能見度: 16.1公里
散云层高于8000英尺
散云层高于14000英尺

METAR: KNFL 152256Z COR 23006KT 10SM SCT080 SCT140 35/04 A3008 RMK SLP154 CB DSNT W T03500039

时间: 16:46 (23:46 UTC)

预报

预报有效从15日的 23点(UTC)到 16日的 23点(UTC)
风速6节,风向多变
能见度10公里或以上
散云层高于8000英尺
散云层高于12000英尺
短暂存在
从 16日的 01点(UTC)到 16日的 03点(UTC)
风速11节,风向西,有时为18节阵风
散云层高于8000英尺, 积雨云.
从 16日的 0400点(UTC)
风速5节,风向多变
能见度10公里或以上
散云层高于8000英尺
从 16日的 1500点(UTC)
风速5节,风向多变
能见度10公里或以上
天空无云
从 16日的 2100点(UTC)
风速9节,风向西转西北
能見度: 1614
少量云层高于8000英尺

TAF: KNFL 1523/1623 VRB06KT 9999 SCT080 SCT120 QNH3003INS TEMPO 1601/1603 28011G18KT SCT080CB FM160400 VRB05KT 9999 SCT080 QNH3004INS FM161500 VRB05KT 9999 SKC QNH3005INS FM162100 29009KT 9999 FEW080 QNH2998INS AUTOMATED SENSOR METWATCH 1606 TILL 1614 TX36/1600Z TN16/1613Z FS30198

超过4000个机场的气象观测和天气预报(METAR&TAF报告)。

可查询的气象台以黄色和红色小点在地图上表示。

将鼠标移到小点上方,可查看气象台名称。

然后点击查看天气观测和预报。

如需切换地图:点击带黑十字的绿色按钮放大地图;点击带横线的绿色按钮缩小地图;或者点击绿色箭头查看邻近地区的地图。


METAR-TAF: